sensor_id;sensor_type;location;lat;lon;timestamp;P1;durP1;ratioP1;P2;durP2;ratioP2
27899;SDS011;15243;50.726;7.080;2023-07-31T00:00:05;7.20;;;3.50;;
27899;SDS011;15243;50.726;7.080;2023-07-31T00:02:35;7.63;;;3.17;;
27899;SDS011;15243;50.726;7.080;2023-07-31T00:05:02;7.03;;;2.97;;
27899;SDS011;15243;50.726;7.080;2023-07-31T00:07:29;10.77;;;3.72;;
27899;SDS011;15243;50.726;7.080;2023-07-31T00:09:57;7.07;;;3.38;;
27899;SDS011;15243;50.726;7.080;2023-07-31T00:12:24;8.20;;;3.45;;
27899;SDS011;15243;50.726;7.080;2023-07-31T00:14:51;13.85;;;4.00;;
27899;SDS011;15243;50.726;7.080;2023-07-31T00:17:18;7.55;;;3.40;;
27899;SDS011;15243;50.726;7.080;2023-07-31T00:19:45;7.07;;;3.20;;
27899;SDS011;15243;50.726;7.080;2023-07-31T00:22:15;6.78;;;3.10;;
27899;SDS011;15243;50.726;7.080;2023-07-31T00:24:42;6.88;;;2.95;;
27899;SDS011;15243;50.726;7.080;2023-07-31T00:27:09;6.80;;;2.85;;
27899;SDS011;15243;50.726;7.080;2023-07-31T00:29:36;7.45;;;3.20;;
27899;SDS011;15243;50.726;7.080;2023-07-31T00:32:03;9.23;;;3.05;;
27899;SDS011;15243;50.726;7.080;2023-07-31T00:34:30;8.07;;;3.10;;
27899;SDS011;15243;50.726;7.080;2023-07-31T00:36:57;8.38;;;2.85;;
27899;SDS011;15243;50.726;7.080;2023-07-31T00:39:24;5.45;;;3.20;;
27899;SDS011;15243;50.726;7.080;2023-07-31T00:41:51;6.97;;;2.50;;
27899;SDS011;15243;50.726;7.080;2023-07-31T00:44:18;5.63;;;2.90;;
27899;SDS011;15243;50.726;7.080;2023-07-31T00:46:45;5.10;;;2.28;;
27899;SDS011;15243;50.726;7.080;2023-07-31T00:49:12;6.80;;;2.35;;
27899;SDS011;15243;50.726;7.080;2023-07-31T00:51:39;8.10;;;2.70;;
27899;SDS011;15243;50.726;7.080;2023-07-31T00:54:07;6.75;;;2.92;;
27899;SDS011;15243;50.726;7.080;2023-07-31T00:56:34;6.65;;;2.60;;
27899;SDS011;15243;50.726;7.080;2023-07-31T00:59:01;6.30;;;2.58;;
27899;SDS011;15243;50.726;7.080;2023-07-31T01:01:29;6.40;;;2.38;;
27899;SDS011;15243;50.726;7.080;2023-07-31T01:03:56;3.92;;;2.70;;
27899;SDS011;15243;50.726;7.080;2023-07-31T01:11:30;9.43;;;2.50;;
27899;SDS011;15243;50.726;7.080;2023-07-31T01:14:00;5.95;;;2.47;;
27899;SDS011;15243;50.726;7.080;2023-07-31T01:16:28;5.05;;;2.50;;
27899;SDS011;15243;50.726;7.080;2023-07-31T01:18:55;8.57;;;2.70;;
27899;SDS011;15243;50.726;7.080;2023-07-31T01:21:34;5.65;;;2.58;;
27899;SDS011;15243;50.726;7.080;2023-07-31T01:24:30;6.40;;;2.72;;
27899;SDS011;15243;50.726;7.080;2023-07-31T01:27:12;6.90;;;2.53;;
27899;SDS011;15243;50.726;7.080;2023-07-31T01:29:48;6.25;;;2.30;;
27899;SDS011;15243;50.726;7.080;2023-07-31T01:32:41;5.55;;;2.35;;
27899;SDS011;15243;50.726;7.080;2023-07-31T01:35:10;6.72;;;2.65;;
27899;SDS011;15243;50.726;7.080;2023-07-31T01:37:37;5.53;;;2.40;;
27899;SDS011;15243;50.726;7.080;2023-07-31T01:40:04;7.18;;;3.08;;
27899;SDS011;15243;50.726;7.080;2023-07-31T01:42:34;5.07;;;2.50;;
27899;SDS011;15243;50.726;7.080;2023-07-31T01:45:01;4.50;;;2.80;;
27899;SDS011;15243;50.726;7.080;2023-07-31T01:47:28;6.68;;;3.20;;
27899;SDS011;15243;50.726;7.080;2023-07-31T01:49:55;6.53;;;2.80;;
27899;SDS011;15243;50.726;7.080;2023-07-31T01:52:22;5.93;;;2.92;;
27899;SDS011;15243;50.726;7.080;2023-07-31T01:54:49;8.32;;;3.15;;
27899;SDS011;15243;50.726;7.080;2023-07-31T01:57:16;5.22;;;2.50;;
27899;SDS011;15243;50.726;7.080;2023-07-31T01:59:43;5.97;;;2.80;;
27899;SDS011;15243;50.726;7.080;2023-07-31T02:02:10;7.55;;;3.17;;
27899;SDS011;15243;50.726;7.080;2023-07-31T02:04:37;7.18;;;3.45;;
27899;SDS011;15243;50.726;7.080;2023-07-31T02:07:05;6.85;;;3.15;;
27899;SDS011;15243;50.726;7.080;2023-07-31T02:09:32;10.50;;;3.35;;
27899;SDS011;15243;50.726;7.080;2023-07-31T02:11:59;5.20;;;2.70;;
27899;SDS011;15243;50.726;7.080;2023-07-31T02:14:26;6.10;;;3.03;;
27899;SDS011;15243;50.726;7.080;2023-07-31T02:16:53;5.22;;;2.70;;
27899;SDS011;15243;50.726;7.080;2023-07-31T02:19:20;6.80;;;2.85;;
27899;SDS011;15243;50.726;7.080;2023-07-31T02:21:47;7.15;;;3.10;;
27899;SDS011;15243;50.726;7.080;2023-07-31T02:24:14;7.53;;;3.38;;
27899;SDS011;15243;50.726;7.080;2023-07-31T02:26:41;9.32;;;3.08;;
27899;SDS011;15243;50.726;7.080;2023-07-31T02:29:08;5.22;;;2.97;;
27899;SDS011;15243;50.726;7.080;2023-07-31T02:31:35;6.88;;;2.92;;
27899;SDS011;15243;50.726;7.080;2023-07-31T02:34:02;9.05;;;3.55;;
27899;SDS011;15243;50.726;7.080;2023-07-31T02:36:29;8.23;;;3.20;;
27899;SDS011;15243;50.726;7.080;2023-07-31T02:38:56;9.27;;;3.42;;
27899;SDS011;15243;50.726;7.080;2023-07-31T02:41:23;9.88;;;3.25;;
27899;SDS011;15243;50.726;7.080;2023-07-31T02:43:50;9.02;;;3.25;;
27899;SDS011;15243;50.726;7.080;2023-07-31T02:46:17;8.20;;;3.40;;
27899;SDS011;15243;50.726;7.080;2023-07-31T02:48:45;8.05;;;2.85;;
27899;SDS011;15243;50.726;7.080;2023-07-31T02:51:12;7.43;;;3.20;;
27899;SDS011;15243;50.726;7.080;2023-07-31T02:53:39;7.82;;;3.08;;
27899;SDS011;15243;50.726;7.080;2023-07-31T02:56:06;6.78;;;3.00;;
27899;SDS011;15243;50.726;7.080;2023-07-31T02:58:32;8.45;;;3.05;;
27899;SDS011;15243;50.726;7.080;2023-07-31T03:00:59;8.35;;;3.80;;
27899;SDS011;15243;50.726;7.080;2023-07-31T03:03:26;9.82;;;3.63;;
27899;SDS011;15243;50.726;7.080;2023-07-31T03:05:54;8.23;;;3.70;;
27899;SDS011;15243;50.726;7.080;2023-07-31T03:08:21;10.32;;;3.92;;
27899;SDS011;15243;50.726;7.080;2023-07-31T03:10:48;6.13;;;3.10;;
27899;SDS011;15243;50.726;7.080;2023-07-31T03:13:15;9.95;;;3.33;;
27899;SDS011;15243;50.726;7.080;2023-07-31T03:15:42;7.68;;;2.88;;
27899;SDS011;15243;50.726;7.080;2023-07-31T03:18:10;8.27;;;3.08;;
27899;SDS011;15243;50.726;7.080;2023-07-31T03:20:37;9.35;;;3.53;;
27899;SDS011;15243;50.726;7.080;2023-07-31T03:23:08;9.85;;;3.55;;
27899;SDS011;15243;50.726;7.080;2023-07-31T03:25:35;9.05;;;3.65;;
27899;SDS011;15243;50.726;7.080;2023-07-31T03:28:02;9.27;;;3.33;;
27899;SDS011;15243;50.726;7.080;2023-07-31T03:30:29;10.48;;;3.67;;
27899;SDS011;15243;50.726;7.080;2023-07-31T03:32:56;10.20;;;3.33;;
27899;SDS011;15243;50.726;7.080;2023-07-31T03:35:23;7.93;;;3.40;;
27899;SDS011;15243;50.726;7.080;2023-07-31T03:37:50;5.82;;;3.53;;
27899;SDS011;15243;50.726;7.080;2023-07-31T03:40:17;11.13;;;3.67;;
27899;SDS011;15243;50.726;7.080;2023-07-31T03:42:44;7.45;;;3.20;;
27899;SDS011;15243;50.726;7.080;2023-07-31T03:45:10;6.47;;;3.22;;
27899;SDS011;15243;50.726;7.080;2023-07-31T03:47:37;7.65;;;3.38;;
27899;SDS011;15243;50.726;7.080;2023-07-31T03:50:04;7.95;;;3.40;;
27899;SDS011;15243;50.726;7.080;2023-07-31T03:52:32;8.30;;;3.60;;
27899;SDS011;15243;50.726;7.080;2023-07-31T03:54:59;9.02;;;3.22;;
27899;SDS011;15243;50.726;7.080;2023-07-31T03:57:25;6.55;;;3.42;;
27899;SDS011;15243;50.726;7.080;2023-07-31T03:59:53;6.57;;;3.45;;
27899;SDS011;15243;50.726;7.080;2023-07-31T04:02:20;6.30;;;3.35;;
27899;SDS011;15243;50.726;7.080;2023-07-31T04:04:47;10.18;;;3.20;;
27899;SDS011;15243;50.726;7.080;2023-07-31T04:07:14;8.23;;;3.55;;
27899;SDS011;15243;50.726;7.080;2023-07-31T04:09:41;7.65;;;3.38;;
27899;SDS011;15243;50.726;7.080;2023-07-31T04:12:08;9.25;;;3.33;;
27899;SDS011;15243;50.726;7.080;2023-07-31T04:14:35;7.75;;;3.10;;
27899;SDS011;15243;50.726;7.080;2023-07-31T04:17:02;7.05;;;2.97;;
27899;SDS011;15243;50.726;7.080;2023-07-31T04:19:29;7.60;;;3.67;;
27899;SDS011;15243;50.726;7.080;2023-07-31T04:21:56;10.02;;;3.90;;
27899;SDS011;15243;50.726;7.080;2023-07-31T04:24:23;9.23;;;3.90;;
27899;SDS011;15243;50.726;7.080;2023-07-31T04:26:53;6.90;;;3.47;;
27899;SDS011;15243;50.726;7.080;2023-07-31T04:29:21;9.65;;;3.72;;
27899;SDS011;15243;50.726;7.080;2023-07-31T04:31:49;9.57;;;3.78;;
27899;SDS011;15243;50.726;7.080;2023-07-31T04:34:15;8.15;;;3.50;;
27899;SDS011;15243;50.726;7.080;2023-07-31T04:36:42;9.55;;;3.88;;
27899;SDS011;15243;50.726;7.080;2023-07-31T04:39:09;8.98;;;3.50;;
27899;SDS011;15243;50.726;7.080;2023-07-31T04:41:36;5.43;;;2.83;;
27899;SDS011;15243;50.726;7.080;2023-07-31T04:44:03;7.60;;;3.53;;
27899;SDS011;15243;50.726;7.080;2023-07-31T04:46:30;7.32;;;3.50;;
27899;SDS011;15243;50.726;7.080;2023-07-31T04:48:57;8.38;;;3.60;;
27899;SDS011;15243;50.726;7.080;2023-07-31T04:51:24;7.53;;;3.50;;
27899;SDS011;15243;50.726;7.080;2023-07-31T04:53:51;7.95;;;3.63;;
27899;SDS011;15243;50.726;7.080;2023-07-31T04:56:18;9.32;;;3.30;;
27899;SDS011;15243;50.726;7.080;2023-07-31T04:58:45;8.95;;;3.72;;
27899;SDS011;15243;50.726;7.080;2023-07-31T05:01:12;5.90;;;3.40;;
27899;SDS011;15243;50.726;7.080;2023-07-31T05:03:39;7.85;;;3.72;;
27899;SDS011;15243;50.726;7.080;2023-07-31T05:06:06;9.02;;;3.90;;
27899;SDS011;15243;50.726;7.080;2023-07-31T05:08:34;8.00;;;3.30;;
27899;SDS011;15243;50.726;7.080;2023-07-31T05:11:02;10.48;;;4.10;;
27899;SDS011;15243;50.726;7.080;2023-07-31T05:13:30;5.93;;;3.55;;
27899;SDS011;15243;50.726;7.080;2023-07-31T05:15:57;8.52;;;3.03;;
27899;SDS011;15243;50.726;7.080;2023-07-31T05:18:28;5.60;;;3.33;;
27899;SDS011;15243;50.726;7.080;2023-07-31T05:20:55;5.80;;;3.50;;
27899;SDS011;15243;50.726;7.080;2023-07-31T05:23:22;9.35;;;3.80;;
27899;SDS011;15243;50.726;7.080;2023-07-31T05:25:49;9.20;;;3.20;;
27899;SDS011;15243;50.726;7.080;2023-07-31T05:28:16;8.48;;;3.30;;
27899;SDS011;15243;50.726;7.080;2023-07-31T05:30:43;8.02;;;3.28;;
27899;SDS011;15243;50.726;7.080;2023-07-31T05:33:11;7.35;;;3.75;;
27899;SDS011;15243;50.726;7.080;2023-07-31T05:35:40;5.18;;;3.17;;
27899;SDS011;15243;50.726;7.080;2023-07-31T05:38:07;7.28;;;3.67;;
27899;SDS011;15243;50.726;7.080;2023-07-31T05:40:35;7.70;;;3.38;;
27899;SDS011;15243;50.726;7.080;2023-07-31T05:43:02;4.70;;;3.20;;
27899;SDS011;15243;50.726;7.080;2023-07-31T05:45:29;5.05;;;2.70;;
27899;SDS011;15243;50.726;7.080;2023-07-31T05:47:56;7.00;;;3.80;;
27899;SDS011;15243;50.726;7.080;2023-07-31T05:50:23;8.63;;;3.22;;
27899;SDS011;15243;50.726;7.080;2023-07-31T05:52:50;5.88;;;3.20;;
27899;SDS011;15243;50.726;7.080;2023-07-31T05:55:17;6.97;;;2.88;;
27899;SDS011;15243;50.726;7.080;2023-07-31T05:57:44;5.47;;;3.00;;
27899;SDS011;15243;50.726;7.080;2023-07-31T06:00:12;5.47;;;2.85;;
27899;SDS011;15243;50.726;7.080;2023-07-31T06:02:40;5.38;;;2.90;;
27899;SDS011;15243;50.726;7.080;2023-07-31T06:05:07;7.43;;;3.28;;
27899;SDS011;15243;50.726;7.080;2023-07-31T06:07:34;6.03;;;3.15;;
27899;SDS011;15243;50.726;7.080;2023-07-31T06:10:02;5.88;;;3.03;;
27899;SDS011;15243;50.726;7.080;2023-07-31T06:12:32;6.57;;;3.67;;
27899;SDS011;15243;50.726;7.080;2023-07-31T06:14:59;11.35;;;3.80;;
27899;SDS011;15243;50.726;7.080;2023-07-31T06:17:26;9.15;;;3.60;;
27899;SDS011;15243;50.726;7.080;2023-07-31T06:19:53;8.35;;;3.50;;
27899;SDS011;15243;50.726;7.080;2023-07-31T06:22:20;6.88;;;3.58;;
27899;SDS011;15243;50.726;7.080;2023-07-31T06:24:47;7.70;;;3.40;;
27899;SDS011;15243;50.726;7.080;2023-07-31T06:27:14;8.80;;;4.03;;
27899;SDS011;15243;50.726;7.080;2023-07-31T06:29:42;8.18;;;4.13;;
27899;SDS011;15243;50.726;7.080;2023-07-31T06:32:09;9.93;;;4.28;;
27899;SDS011;15243;50.726;7.080;2023-07-31T06:34:36;7.30;;;3.60;;
27899;SDS011;15243;50.726;7.080;2023-07-31T06:37:03;8.70;;;3.60;;
27899;SDS011;15243;50.726;7.080;2023-07-31T06:39:30;10.00;;;4.20;;
27899;SDS011;15243;50.726;7.080;2023-07-31T06:41:57;13.10;;;4.65;;
27899;SDS011;15243;50.726;7.080;2023-07-31T06:44:24;8.52;;;4.18;;
27899;SDS011;15243;50.726;7.080;2023-07-31T06:46:51;10.02;;;5.05;;
27899;SDS011;15243;50.726;7.080;2023-07-31T06:49:18;10.57;;;4.22;;
27899;SDS011;15243;50.726;7.080;2023-07-31T06:51:46;6.93;;;3.67;;
27899;SDS011;15243;50.726;7.080;2023-07-31T06:54:13;7.60;;;4.05;;
27899;SDS011;15243;50.726;7.080;2023-07-31T06:56:40;7.70;;;4.20;;
27899;SDS011;15243;50.726;7.080;2023-07-31T06:59:08;8.45;;;4.10;;
27899;SDS011;15243;50.726;7.080;2023-07-31T07:01:35;7.22;;;4.22;;
27899;SDS011;15243;50.726;7.080;2023-07-31T07:04:02;9.23;;;4.13;;
27899;SDS011;15243;50.726;7.080;2023-07-31T07:06:29;10.77;;;4.78;;
27899;SDS011;15243;50.726;7.080;2023-07-31T07:08:56;10.18;;;3.97;;
27899;SDS011;15243;50.726;7.080;2023-07-31T07:11:23;7.20;;;4.13;;
27899;SDS011;15243;50.726;7.080;2023-07-31T07:13:50;9.13;;;4.38;;
27899;SDS011;15243;50.726;7.080;2023-07-31T07:16:17;10.80;;;3.60;;
27899;SDS011;15243;50.726;7.080;2023-07-31T07:18:44;9.73;;;3.70;;
27899;SDS011;15243;50.726;7.080;2023-07-31T07:23:54;6.80;;;4.00;;
27899;SDS011;15243;50.726;7.080;2023-07-31T07:26:21;8.52;;;3.63;;
27899;SDS011;15243;50.726;7.080;2023-07-31T07:28:48;9.82;;;4.05;;
27899;SDS011;15243;50.726;7.080;2023-07-31T07:31:16;13.15;;;4.05;;
27899;SDS011;15243;50.726;7.080;2023-07-31T07:33:43;9.98;;;4.38;;
27899;SDS011;15243;50.726;7.080;2023-07-31T07:36:10;7.75;;;4.03;;
27899;SDS011;15243;50.726;7.080;2023-07-31T07:38:39;9.15;;;4.57;;
27899;SDS011;15243;50.726;7.080;2023-07-31T07:41:06;7.80;;;4.45;;
27899;SDS011;15243;50.726;7.080;2023-07-31T07:43:33;7.70;;;4.30;;
27899;SDS011;15243;50.726;7.080;2023-07-31T07:46:00;8.60;;;4.20;;
27899;SDS011;15243;50.726;7.080;2023-07-31T07:48:27;7.07;;;3.85;;
27899;SDS011;15243;50.726;7.080;2023-07-31T07:50:54;8.98;;;4.28;;
27899;SDS011;15243;50.726;7.080;2023-07-31T07:53:21;8.40;;;4.82;;
27899;SDS011;15243;50.726;7.080;2023-07-31T07:55:48;11.50;;;4.70;;
27899;SDS011;15243;50.726;7.080;2023-07-31T07:58:15;10.20;;;4.50;;
27899;SDS011;15243;50.726;7.080;2023-07-31T08:00:47;12.95;;;4.07;;
27899;SDS011;15243;50.726;7.080;2023-07-31T08:03:19;8.90;;;4.55;;
27899;SDS011;15243;50.726;7.080;2023-07-31T08:05:47;13.65;;;4.38;;
27899;SDS011;15243;50.726;7.080;2023-07-31T08:08:14;12.05;;;4.50;;
27899;SDS011;15243;50.726;7.080;2023-07-31T08:10:42;14.45;;;4.68;;
27899;SDS011;15243;50.726;7.080;2023-07-31T08:13:10;11.30;;;4.95;;
27899;SDS011;15243;50.726;7.080;2023-07-31T08:15:40;10.82;;;4.10;;
27899;SDS011;15243;50.726;7.080;2023-07-31T08:18:08;10.90;;;4.63;;
27899;SDS011;15243;50.726;7.080;2023-07-31T08:20:35;9.82;;;4.05;;
27899;SDS011;15243;50.726;7.080;2023-07-31T08:23:02;8.57;;;4.15;;
27899;SDS011;15243;50.726;7.080;2023-07-31T08:25:30;12.43;;;4.10;;
27899;SDS011;15243;50.726;7.080;2023-07-31T08:27:57;8.20;;;3.35;;
27899;SDS011;15243;50.726;7.080;2023-07-31T08:30:24;9.77;;;3.97;;
27899;SDS011;15243;50.726;7.080;2023-07-31T08:32:51;11.57;;;3.88;;
27899;SDS011;15243;50.726;7.080;2023-07-31T08:35:18;13.15;;;3.85;;
27899;SDS011;15243;50.726;7.080;2023-07-31T08:37:45;7.38;;;3.78;;
27899;SDS011;15243;50.726;7.080;2023-07-31T08:40:12;12.07;;;4.38;;
27899;SDS011;15243;50.726;7.080;2023-07-31T08:42:44;10.82;;;4.60;;
27899;SDS011;15243;50.726;7.080;2023-07-31T08:45:15;8.15;;;4.35;;
27899;SDS011;15243;50.726;7.080;2023-07-31T08:47:46;12.30;;;3.88;;
27899;SDS011;15243;50.726;7.080;2023-07-31T08:50:15;10.73;;;4.07;;
27899;SDS011;15243;50.726;7.080;2023-07-31T08:52:47;7.07;;;3.92;;
27899;SDS011;15243;50.726;7.080;2023-07-31T08:55:15;11.00;;;3.97;;
27899;SDS011;15243;50.726;7.080;2023-07-31T08:57:43;7.43;;;3.88;;
27899;SDS011;15243;50.726;7.080;2023-07-31T09:00:10;7.72;;;3.88;;
27899;SDS011;15243;50.726;7.080;2023-07-31T09:02:45;7.55;;;3.65;;
27899;SDS011;15243;50.726;7.080;2023-07-31T09:05:15;5.68;;;3.83;;
27899;SDS011;15243;50.726;7.080;2023-07-31T09:07:44;7.43;;;3.85;;
27899;SDS011;15243;50.726;7.080;2023-07-31T09:10:13;8.93;;;3.42;;
27899;SDS011;15243;50.726;7.080;2023-07-31T09:12:40;7.75;;;3.50;;
27899;SDS011;15243;50.726;7.080;2023-07-31T09:15:08;7.65;;;3.22;;
27899;SDS011;15243;50.726;7.080;2023-07-31T09:17:59;8.63;;;3.17;;
27899;SDS011;15243;50.726;7.080;2023-07-31T09:20:28;10.27;;;4.05;;
27899;SDS011;15243;50.726;7.080;2023-07-31T09:22:56;11.35;;;3.83;;
27899;SDS011;15243;50.726;7.080;2023-07-31T09:25:23;7.28;;;3.25;;
27899;SDS011;15243;50.726;7.080;2023-07-31T09:28:00;7.47;;;3.58;;
27899;SDS011;15243;50.726;7.080;2023-07-31T09:30:28;9.00;;;3.92;;
27899;SDS011;15243;50.726;7.080;2023-07-31T09:33:05;9.05;;;3.47;;
27899;SDS011;15243;50.726;7.080;2023-07-31T09:35:34;4.00;;;2.72;;
27899;SDS011;15243;50.726;7.080;2023-07-31T09:38:11;5.75;;;2.88;;
27899;SDS011;15243;50.726;7.080;2023-07-31T09:40:41;8.30;;;3.45;;
27899;SDS011;15243;50.726;7.080;2023-07-31T09:43:13;8.10;;;3.17;;
27899;SDS011;15243;50.726;7.080;2023-07-31T09:45:44;8.05;;;3.17;;
27899;SDS011;15243;50.726;7.080;2023-07-31T09:48:18;6.07;;;2.78;;
27899;SDS011;15243;50.726;7.080;2023-07-31T09:50:46;4.78;;;2.40;;
27899;SDS011;15243;50.726;7.080;2023-07-31T09:53:16;7.65;;;2.83;;
27899;SDS011;15243;50.726;7.080;2023-07-31T09:55:43;4.97;;;2.28;;
27899;SDS011;15243;50.726;7.080;2023-07-31T09:58:13;5.00;;;2.20;;
27899;SDS011;15243;50.726;7.080;2023-07-31T10:00:40;4.22;;;2.00;;
27899;SDS011;15243;50.726;7.080;2023-07-31T10:03:08;8.30;;;2.55;;
27899;SDS011;15243;50.726;7.080;2023-07-31T10:05:42;2.63;;;2.10;;
27899;SDS011;15243;50.726;7.080;2023-07-31T10:08:13;5.78;;;2.42;;
27899;SDS011;15243;50.726;7.080;2023-07-31T10:10:42;7.68;;;2.50;;
27899;SDS011;15243;50.726;7.080;2023-07-31T10:13:10;5.35;;;2.22;;
27899;SDS011;15243;50.726;7.080;2023-07-31T10:15:39;6.03;;;2.08;;
27899;SDS011;15243;50.726;7.080;2023-07-31T10:18:08;4.72;;;2.30;;
27899;SDS011;15243;50.726;7.080;2023-07-31T10:20:35;8.27;;;2.50;;
27899;SDS011;15243;50.726;7.080;2023-07-31T10:23:03;4.75;;;2.15;;
27899;SDS011;15243;50.726;7.080;2023-07-31T10:25:30;4.93;;;2.20;;
27899;SDS011;15243;50.726;7.080;2023-07-31T10:27:59;4.75;;;2.35;;
27899;SDS011;15243;50.726;7.080;2023-07-31T10:30:27;3.70;;;1.90;;
27899;SDS011;15243;50.726;7.080;2023-07-31T10:32:57;5.15;;;2.13;;
27899;SDS011;15243;50.726;7.080;2023-07-31T10:35:25;6.65;;;2.38;;
27899;SDS011;15243;50.726;7.080;2023-07-31T10:37:53;5.78;;;2.30;;
27899;SDS011;15243;50.726;7.080;2023-07-31T10:40:25;5.93;;;1.85;;
27899;SDS011;15243;50.726;7.080;2023-07-31T10:42:54;7.75;;;2.22;;
27899;SDS011;15243;50.726;7.080;2023-07-31T10:45:41;4.25;;;2.00;;
27899;SDS011;15243;50.726;7.080;2023-07-31T10:48:16;3.13;;;1.70;;
27899;SDS011;15243;50.726;7.080;2023-07-31T10:50:47;3.40;;;1.85;;
27899;SDS011;15243;50.726;7.080;2023-07-31T10:53:52;8.85;;;1.90;;
27899;SDS011;15243;50.726;7.080;2023-07-31T10:56:11;4.38;;;1.80;;
27899;SDS011;15243;50.726;7.080;2023-07-31T10:58:40;4.72;;;1.40;;
27899;SDS011;15243;50.726;7.080;2023-07-31T11:01:12;3.65;;;1.40;;
27899;SDS011;15243;50.726;7.080;2023-07-31T11:06:09;3.17;;;1.50;;
27899;SDS011;15243;50.726;7.080;2023-07-31T11:08:43;10.10;;;1.80;;
27899;SDS011;15243;50.726;7.080;2023-07-31T11:11:14;3.10;;;1.60;;
27899;SDS011;15243;50.726;7.080;2023-07-31T11:13:52;4.90;;;1.40;;
27899;SDS011;15243;50.726;7.080;2023-07-31T11:16:20;2.20;;;1.27;;
27899;SDS011;15243;50.726;7.080;2023-07-31T11:18:51;3.55;;;1.77;;
27899;SDS011;15243;50.726;7.080;2023-07-31T11:21:21;3.67;;;2.28;;
27899;SDS011;15243;50.726;7.080;2023-07-31T11:23:50;2.70;;;1.42;;
27899;SDS011;15243;50.726;7.080;2023-07-31T11:26:18;1.70;;;1.20;;
27899;SDS011;15243;50.726;7.080;2023-07-31T11:28:48;2.90;;;1.45;;
27899;SDS011;15243;50.726;7.080;2023-07-31T11:31:17;2.88;;;1.30;;
27899;SDS011;15243;50.726;7.080;2023-07-31T11:33:45;3.38;;;1.17;;
27899;SDS011;15243;50.726;7.080;2023-07-31T11:36:16;3.42;;;1.30;;
27899;SDS011;15243;50.726;7.080;2023-07-31T11:38:44;2.85;;;1.23;;
27899;SDS011;15243;50.726;7.080;2023-07-31T11:41:13;4.78;;;1.52;;
27899;SDS011;15243;50.726;7.080;2023-07-31T11:43:42;2.13;;;1.35;;
27899;SDS011;15243;50.726;7.080;2023-07-31T11:46:09;2.85;;;1.17;;
27899;SDS011;15243;50.726;7.080;2023-07-31T11:48:37;3.67;;;1.35;;
27899;SDS011;15243;50.726;7.080;2023-07-31T11:51:04;1.80;;;1.30;;
27899;SDS011;15243;50.726;7.080;2023-07-31T11:53:40;3.15;;;1.50;;
27899;SDS011;15243;50.726;7.080;2023-07-31T11:56:14;3.83;;;1.23;;
27899;SDS011;15243;50.726;7.080;2023-07-31T11:58:43;3.20;;;1.10;;
27899;SDS011;15243;50.726;7.080;2023-07-31T12:01:14;2.47;;;1.40;;
27899;SDS011;15243;50.726;7.080;2023-07-31T12:03:43;4.32;;;1.45;;
27899;SDS011;15243;50.726;7.080;2023-07-31T12:06:12;6.63;;;1.13;;
27899;SDS011;15243;50.726;7.080;2023-07-31T12:08:39;1.33;;;0.85;;
27899;SDS011;15243;50.726;7.080;2023-07-31T12:11:07;3.72;;;1.40;;
27899;SDS011;15243;50.726;7.080;2023-07-31T12:13:39;2.38;;;1.60;;
27899;SDS011;15243;50.726;7.080;2023-07-31T12:16:06;3.15;;;1.80;;
27899;SDS011;15243;50.726;7.080;2023-07-31T12:18:34;3.58;;;1.85;;
27899;SDS011;15243;50.726;7.080;2023-07-31T12:21:04;3.58;;;1.80;;
27899;SDS011;15243;50.726;7.080;2023-07-31T12:23:35;4.43;;;2.20;;
27899;SDS011;15243;50.726;7.080;2023-07-31T12:26:08;2.40;;;1.90;;
27899;SDS011;15243;50.726;7.080;2023-07-31T12:28:37;4.20;;;2.65;;
27899;SDS011;15243;50.726;7.080;2023-07-31T12:31:05;3.83;;;2.58;;
27899;SDS011;15243;50.726;7.080;2023-07-31T12:33:35;7.28;;;2.90;;
27899;SDS011;15243;50.726;7.080;2023-07-31T12:36:07;5.40;;;3.08;;
27899;SDS011;15243;50.726;7.080;2023-07-31T12:38:35;4.38;;;2.65;;
27899;SDS011;15243;50.726;7.080;2023-07-31T12:41:02;3.80;;;2.78;;
27899;SDS011;15243;50.726;7.080;2023-07-31T12:43:29;5.90;;;3.17;;
27899;SDS011;15243;50.726;7.080;2023-07-31T12:45:56;4.97;;;3.13;;
27899;SDS011;15243;50.726;7.080;2023-07-31T12:48:24;4.43;;;3.00;;
27899;SDS011;15243;50.726;7.080;2023-07-31T12:50:51;6.20;;;2.90;;
27899;SDS011;15243;50.726;7.080;2023-07-31T12:53:18;5.85;;;3.15;;
27899;SDS011;15243;50.726;7.080;2023-07-31T12:55:45;5.35;;;3.10;;
27899;SDS011;15243;50.726;7.080;2023-07-31T12:58:12;6.97;;;3.78;;
27899;SDS011;15243;50.726;7.080;2023-07-31T13:00:39;6.15;;;3.20;;
27899;SDS011;15243;50.726;7.080;2023-07-31T13:03:06;5.32;;;3.30;;
27899;SDS011;15243;50.726;7.080;2023-07-31T13:05:33;5.55;;;3.55;;
27899;SDS011;15243;50.726;7.080;2023-07-31T13:08:01;5.30;;;3.17;;
27899;SDS011;15243;50.726;7.080;2023-07-31T13:10:28;5.22;;;3.55;;
27899;SDS011;15243;50.726;7.080;2023-07-31T13:12:56;4.32;;;3.35;;
27899;SDS011;15243;50.726;7.080;2023-07-31T13:15:23;5.20;;;3.60;;
27899;SDS011;15243;50.726;7.080;2023-07-31T13:17:50;5.50;;;3.30;;
27899;SDS011;15243;50.726;7.080;2023-07-31T13:20:18;5.93;;;3.40;;
27899;SDS011;15243;50.726;7.080;2023-07-31T13:22:45;4.72;;;3.20;;
27899;SDS011;15243;50.726;7.080;2023-07-31T13:25:12;5.57;;;3.42;;
27899;SDS011;15243;50.726;7.080;2023-07-31T13:27:40;7.28;;;3.22;;
27899;SDS011;15243;50.726;7.080;2023-07-31T13:30:07;6.78;;;3.40;;
27899;SDS011;15243;50.726;7.080;2023-07-31T13:32:34;5.57;;;3.00;;
27899;SDS011;15243;50.726;7.080;2023-07-31T13:35:05;3.92;;;2.67;;
27899;SDS011;15243;50.726;7.080;2023-07-31T13:37:34;4.00;;;2.33;;
27899;SDS011;15243;50.726;7.080;2023-07-31T13:40:01;3.65;;;2.25;;
27899;SDS011;15243;50.726;7.080;2023-07-31T13:42:32;3.60;;;2.33;;
27899;SDS011;15243;50.726;7.080;2023-07-31T13:44:59;3.17;;;1.80;;
27899;SDS011;15243;50.726;7.080;2023-07-31T13:47:28;4.43;;;2.10;;
27899;SDS011;15243;50.726;7.080;2023-07-31T13:49:55;2.25;;;1.67;;
27899;SDS011;15243;50.726;7.080;2023-07-31T13:52:22;2.22;;;1.98;;
27899;SDS011;15243;50.726;7.080;2023-07-31T13:54:49;3.05;;;2.08;;
27899;SDS011;15243;50.726;7.080;2023-07-31T13:57:16;2.55;;;1.73;;
27899;SDS011;15243;50.726;7.080;2023-07-31T13:59:43;4.18;;;1.95;;
27899;SDS011;15243;50.726;7.080;2023-07-31T14:02:10;3.38;;;2.03;;
27899;SDS011;15243;50.726;7.080;2023-07-31T14:04:37;3.08;;;1.92;;
27899;SDS011;15243;50.726;7.080;2023-07-31T14:07:04;4.68;;;2.40;;
27899;SDS011;15243;50.726;7.080;2023-07-31T14:09:31;3.83;;;2.00;;
27899;SDS011;15243;50.726;7.080;2023-07-31T14:11:58;3.47;;;2.08;;
27899;SDS011;15243;50.726;7.080;2023-07-31T14:14:25;3.28;;;2.17;;
27899;SDS011;15243;50.726;7.080;2023-07-31T14:16:53;2.22;;;1.95;;
27899;SDS011;15243;50.726;7.080;2023-07-31T14:19:20;3.65;;;1.85;;
27899;SDS011;15243;50.726;7.080;2023-07-31T14:21:47;2.83;;;1.88;;
27899;SDS011;15243;50.726;7.080;2023-07-31T14:24:34;4.57;;;1.85;;
27899;SDS011;15243;50.726;7.080;2023-07-31T14:27:01;4.40;;;2.05;;
27899;SDS011;15243;50.726;7.080;2023-07-31T14:29:29;2.72;;;1.70;;
27899;SDS011;15243;50.726;7.080;2023-07-31T14:31:56;2.20;;;1.73;;
27899;SDS011;15243;50.726;7.080;2023-07-31T14:34:23;2.03;;;1.63;;
27899;SDS011;15243;50.726;7.080;2023-07-31T14:36:50;3.80;;;1.70;;
27899;SDS011;15243;50.726;7.080;2023-07-31T14:39:17;2.97;;;1.85;;
27899;SDS011;15243;50.726;7.080;2023-07-31T14:41:44;3.53;;;2.15;;
27899;SDS011;15243;50.726;7.080;2023-07-31T14:44:12;3.05;;;1.98;;
27899;SDS011;15243;50.726;7.080;2023-07-31T14:46:39;3.05;;;1.83;;
27899;SDS011;15243;50.726;7.080;2023-07-31T14:49:06;3.10;;;2.00;;
27899;SDS011;15243;50.726;7.080;2023-07-31T14:51:33;4.22;;;2.05;;
27899;SDS011;15243;50.726;7.080;2023-07-31T14:54:00;3.13;;;1.85;;
27899;SDS011;15243;50.726;7.080;2023-07-31T14:56:27;4.13;;;2.10;;
27899;SDS011;15243;50.726;7.080;2023-07-31T14:58:54;2.25;;;1.73;;
27899;SDS011;15243;50.726;7.080;2023-07-31T15:01:21;3.35;;;1.88;;